sensor_id;sensor_type;location;lat;lon;timestamp;P1;durP1;ratioP1;P2;durP2;ratioP2
51852;SDS011;37894;53.172;6.598;2022-07-17T00:02:16;6.13;;;2.45;;
51852;SDS011;37894;53.172;6.598;2022-07-17T00:04:42;7.60;;;2.33;;
51852;SDS011;37894;53.172;6.598;2022-07-17T00:07:07;4.97;;;2.25;;
51852;SDS011;37894;53.172;6.598;2022-07-17T00:09:33;4.32;;;2.10;;
51852;SDS011;37894;53.172;6.598;2022-07-17T00:11:59;5.00;;;2.10;;
51852;SDS011;37894;53.172;6.598;2022-07-17T00:14:24;6.57;;;2.58;;
51852;SDS011;37894;53.172;6.598;2022-07-17T00:16:50;6.70;;;2.47;;
51852;SDS011;37894;53.172;6.598;2022-07-17T00:19:16;5.72;;;2.30;;
51852;SDS011;37894;53.172;6.598;2022-07-17T00:21:42;7.95;;;2.30;;
51852;SDS011;37894;53.172;6.598;2022-07-17T00:24:08;6.03;;;2.20;;
51852;SDS011;37894;53.172;6.598;2022-07-17T00:26:34;6.32;;;2.25;;
51852;SDS011;37894;53.172;6.598;2022-07-17T00:28:59;6.53;;;2.33;;
51852;SDS011;37894;53.172;6.598;2022-07-17T00:31:26;5.05;;;2.00;;
51852;SDS011;37894;53.172;6.598;2022-07-17T00:33:52;5.13;;;2.22;;
51852;SDS011;37894;53.172;6.598;2022-07-17T00:36:17;8.10;;;2.88;;
51852;SDS011;37894;53.172;6.598;2022-07-17T00:38:43;8.43;;;2.35;;
51852;SDS011;37894;53.172;6.598;2022-07-17T00:41:09;8.05;;;2.72;;
51852;SDS011;37894;53.172;6.598;2022-07-17T00:43:34;6.68;;;2.40;;
51852;SDS011;37894;53.172;6.598;2022-07-17T00:46:01;5.50;;;2.30;;
51852;SDS011;37894;53.172;6.598;2022-07-17T00:48:28;5.55;;;2.58;;
51852;SDS011;37894;53.172;6.598;2022-07-17T00:50:54;5.03;;;2.92;;
51852;SDS011;37894;53.172;6.598;2022-07-17T00:53:20;4.07;;;2.13;;
51852;SDS011;37894;53.172;6.598;2022-07-17T00:55:47;4.75;;;2.30;;
51852;SDS011;37894;53.172;6.598;2022-07-17T00:58:18;3.80;;;2.15;;
51852;SDS011;37894;53.172;6.598;2022-07-17T01:00:45;5.97;;;2.53;;
51852;SDS011;37894;53.172;6.598;2022-07-17T01:03:13;7.20;;;2.42;;
51852;SDS011;37894;53.172;6.598;2022-07-17T01:05:39;5.68;;;2.42;;
51852;SDS011;37894;53.172;6.598;2022-07-17T01:08:05;7.22;;;2.50;;
51852;SDS011;37894;53.172;6.598;2022-07-17T01:10:31;7.90;;;2.55;;
51852;SDS011;37894;53.172;6.598;2022-07-17T01:12:57;4.53;;;2.60;;
51852;SDS011;37894;53.172;6.598;2022-07-17T01:15:22;5.32;;;2.50;;
51852;SDS011;37894;53.172;6.598;2022-07-17T01:17:49;6.25;;;2.45;;
51852;SDS011;37894;53.172;6.598;2022-07-17T01:20:14;6.32;;;2.60;;
51852;SDS011;37894;53.172;6.598;2022-07-17T01:22:44;6.13;;;2.67;;
51852;SDS011;37894;53.172;6.598;2022-07-17T01:25:11;6.22;;;2.53;;
51852;SDS011;37894;53.172;6.598;2022-07-17T01:27:38;5.93;;;2.40;;
51852;SDS011;37894;53.172;6.598;2022-07-17T01:30:04;6.22;;;2.63;;
51852;SDS011;37894;53.172;6.598;2022-07-17T01:32:34;6.53;;;2.80;;
51852;SDS011;37894;53.172;6.598;2022-07-17T01:35:02;5.72;;;2.55;;
51852;SDS011;37894;53.172;6.598;2022-07-17T01:37:28;6.15;;;2.72;;
51852;SDS011;37894;53.172;6.598;2022-07-17T01:39:54;7.35;;;3.20;;
51852;SDS011;37894;53.172;6.598;2022-07-17T01:42:21;7.68;;;2.88;;
51852;SDS011;37894;53.172;6.598;2022-07-17T01:44:47;7.60;;;3.55;;
51852;SDS011;37894;53.172;6.598;2022-07-17T01:47:13;5.57;;;2.72;;
51852;SDS011;37894;53.172;6.598;2022-07-17T01:49:43;10.07;;;3.20;;
51852;SDS011;37894;53.172;6.598;2022-07-17T01:52:10;11.68;;;3.10;;
51852;SDS011;37894;53.172;6.598;2022-07-17T01:54:36;5.45;;;3.08;;
51852;SDS011;37894;53.172;6.598;2022-07-17T01:57:01;6.20;;;2.85;;
51852;SDS011;37894;53.172;6.598;2022-07-17T01:59:27;7.97;;;3.30;;
51852;SDS011;37894;53.172;6.598;2022-07-17T02:01:52;9.07;;;3.08;;
51852;SDS011;37894;53.172;6.598;2022-07-17T02:04:18;7.63;;;3.17;;
51852;SDS011;37894;53.172;6.598;2022-07-17T02:06:44;4.88;;;2.65;;
51852;SDS011;37894;53.172;6.598;2022-07-17T02:09:09;7.45;;;3.15;;
51852;SDS011;37894;53.172;6.598;2022-07-17T02:11:35;8.60;;;2.60;;
51852;SDS011;37894;53.172;6.598;2022-07-17T02:14:00;7.45;;;3.17;;
51852;SDS011;37894;53.172;6.598;2022-07-17T02:16:26;7.07;;;3.13;;
51852;SDS011;37894;53.172;6.598;2022-07-17T02:18:52;5.55;;;2.92;;
51852;SDS011;37894;53.172;6.598;2022-07-17T02:21:17;7.15;;;2.72;;
51852;SDS011;37894;53.172;6.598;2022-07-17T02:23:43;4.90;;;2.83;;
51852;SDS011;37894;53.172;6.598;2022-07-17T02:26:09;4.18;;;3.00;;
51852;SDS011;37894;53.172;6.598;2022-07-17T02:28:35;5.50;;;3.30;;
51852;SDS011;37894;53.172;6.598;2022-07-17T02:31:00;8.48;;;3.30;;
51852;SDS011;37894;53.172;6.598;2022-07-17T02:33:26;5.38;;;3.28;;
51852;SDS011;37894;53.172;6.598;2022-07-17T02:35:52;6.57;;;3.55;;
51852;SDS011;37894;53.172;6.598;2022-07-17T02:38:17;6.45;;;3.03;;
51852;SDS011;37894;53.172;6.598;2022-07-17T02:40:43;10.93;;;3.03;;
51852;SDS011;37894;53.172;6.598;2022-07-17T02:43:09;5.70;;;3.20;;
51852;SDS011;37894;53.172;6.598;2022-07-17T02:45:35;5.82;;;3.42;;
51852;SDS011;37894;53.172;6.598;2022-07-17T02:48:01;6.47;;;3.00;;
51852;SDS011;37894;53.172;6.598;2022-07-17T02:50:27;6.20;;;3.22;;
51852;SDS011;37894;53.172;6.598;2022-07-17T02:52:53;6.03;;;2.60;;
51852;SDS011;37894;53.172;6.598;2022-07-17T02:55:19;7.28;;;3.03;;
51852;SDS011;37894;53.172;6.598;2022-07-17T02:57:44;7.55;;;2.97;;
51852;SDS011;37894;53.172;6.598;2022-07-17T03:00:14;8.63;;;3.03;;
51852;SDS011;37894;53.172;6.598;2022-07-17T03:02:42;6.75;;;3.65;;
51852;SDS011;37894;53.172;6.598;2022-07-17T03:05:09;7.07;;;3.58;;
51852;SDS011;37894;53.172;6.598;2022-07-17T03:07:35;10.05;;;3.63;;
51852;SDS011;37894;53.172;6.598;2022-07-17T03:10:01;7.32;;;3.88;;
51852;SDS011;37894;53.172;6.598;2022-07-17T03:12:28;9.38;;;3.70;;
51852;SDS011;37894;53.172;6.598;2022-07-17T03:14:54;6.22;;;3.50;;
51852;SDS011;37894;53.172;6.598;2022-07-17T03:17:19;7.03;;;3.13;;
51852;SDS011;37894;53.172;6.598;2022-07-17T03:19:45;7.65;;;3.80;;
51852;SDS011;37894;53.172;6.598;2022-07-17T03:22:11;7.30;;;3.75;;
51852;SDS011;37894;53.172;6.598;2022-07-17T03:24:36;6.88;;;3.90;;
51852;SDS011;37894;53.172;6.598;2022-07-17T03:27:02;6.95;;;3.78;;
51852;SDS011;37894;53.172;6.598;2022-07-17T03:29:28;6.50;;;3.58;;
51852;SDS011;37894;53.172;6.598;2022-07-17T03:31:53;5.30;;;3.35;;
51852;SDS011;37894;53.172;6.598;2022-07-17T03:34:19;7.88;;;3.88;;
51852;SDS011;37894;53.172;6.598;2022-07-17T03:36:45;7.07;;;3.72;;
51852;SDS011;37894;53.172;6.598;2022-07-17T03:39:11;8.55;;;3.80;;
51852;SDS011;37894;53.172;6.598;2022-07-17T03:41:37;4.93;;;3.45;;
51852;SDS011;37894;53.172;6.598;2022-07-17T03:44:03;5.93;;;3.22;;
51852;SDS011;37894;53.172;6.598;2022-07-17T03:46:29;7.43;;;3.53;;
51852;SDS011;37894;53.172;6.598;2022-07-17T03:48:54;6.63;;;3.30;;
51852;SDS011;37894;53.172;6.598;2022-07-17T03:51:20;8.57;;;3.42;;
51852;SDS011;37894;53.172;6.598;2022-07-17T03:53:45;7.68;;;3.83;;
51852;SDS011;37894;53.172;6.598;2022-07-17T03:56:11;10.02;;;3.75;;
51852;SDS011;37894;53.172;6.598;2022-07-17T03:58:37;6.45;;;3.25;;
51852;SDS011;37894;53.172;6.598;2022-07-17T04:01:02;7.28;;;3.67;;
51852;SDS011;37894;53.172;6.598;2022-07-17T04:03:28;7.72;;;4.00;;
51852;SDS011;37894;53.172;6.598;2022-07-17T04:05:54;6.78;;;3.67;;
51852;SDS011;37894;53.172;6.598;2022-07-17T04:08:19;7.47;;;3.90;;
51852;SDS011;37894;53.172;6.598;2022-07-17T04:10:45;7.40;;;3.85;;
51852;SDS011;37894;53.172;6.598;2022-07-17T04:13:11;8.52;;;3.92;;
51852;SDS011;37894;53.172;6.598;2022-07-17T04:15:37;7.05;;;3.58;;
51852;SDS011;37894;53.172;6.598;2022-07-17T04:18:28;9.57;;;4.65;;
51852;SDS011;37894;53.172;6.598;2022-07-17T04:20:57;7.03;;;3.67;;
51852;SDS011;37894;53.172;6.598;2022-07-17T04:23:24;7.63;;;4.03;;
51852;SDS011;37894;53.172;6.598;2022-07-17T04:25:50;12.00;;;4.53;;
51852;SDS011;37894;53.172;6.598;2022-07-17T04:28:15;9.85;;;4.53;;
51852;SDS011;37894;53.172;6.598;2022-07-17T04:30:41;9.07;;;3.95;;
51852;SDS011;37894;53.172;6.598;2022-07-17T04:33:07;12.25;;;4.30;;
51852;SDS011;37894;53.172;6.598;2022-07-17T04:35:33;8.02;;;4.53;;
51852;SDS011;37894;53.172;6.598;2022-07-17T04:38:00;9.57;;;4.40;;
51852;SDS011;37894;53.172;6.598;2022-07-17T04:40:26;8.30;;;4.13;;
51852;SDS011;37894;53.172;6.598;2022-07-17T04:42:51;8.90;;;3.83;;
51852;SDS011;37894;53.172;6.598;2022-07-17T04:45:17;7.00;;;3.88;;
51852;SDS011;37894;53.172;6.598;2022-07-17T04:47:43;8.73;;;4.28;;
51852;SDS011;37894;53.172;6.598;2022-07-17T04:50:09;7.95;;;3.75;;
51852;SDS011;37894;53.172;6.598;2022-07-17T04:52:35;9.30;;;4.28;;
51852;SDS011;37894;53.172;6.598;2022-07-17T04:55:02;8.05;;;4.30;;
51852;SDS011;37894;53.172;6.598;2022-07-17T04:57:28;8.15;;;4.03;;
51852;SDS011;37894;53.172;6.598;2022-07-17T04:59:54;8.18;;;4.32;;
51852;SDS011;37894;53.172;6.598;2022-07-17T05:02:19;8.55;;;3.85;;
51852;SDS011;37894;53.172;6.598;2022-07-17T05:04:45;8.07;;;4.03;;
51852;SDS011;37894;53.172;6.598;2022-07-17T05:07:11;8.32;;;3.67;;
51852;SDS011;37894;53.172;6.598;2022-07-17T05:09:37;9.00;;;4.00;;
51852;SDS011;37894;53.172;6.598;2022-07-17T05:12:03;9.07;;;3.67;;
51852;SDS011;37894;53.172;6.598;2022-07-17T05:14:29;5.57;;;3.92;;
51852;SDS011;37894;53.172;6.598;2022-07-17T05:16:55;8.82;;;3.85;;
51852;SDS011;37894;53.172;6.598;2022-07-17T05:19:20;6.75;;;3.63;;
51852;SDS011;37894;53.172;6.598;2022-07-17T05:21:48;7.07;;;3.53;;
51852;SDS011;37894;53.172;6.598;2022-07-17T05:24:14;12.40;;;3.70;;
51852;SDS011;37894;53.172;6.598;2022-07-17T05:26:39;7.38;;;3.67;;
51852;SDS011;37894;53.172;6.598;2022-07-17T05:29:05;8.40;;;3.63;;
51852;SDS011;37894;53.172;6.598;2022-07-17T05:31:30;5.68;;;3.30;;
51852;SDS011;37894;53.172;6.598;2022-07-17T05:33:56;10.35;;;3.88;;
51852;SDS011;37894;53.172;6.598;2022-07-17T05:36:22;5.60;;;3.50;;
51852;SDS011;37894;53.172;6.598;2022-07-17T05:38:47;7.47;;;3.22;;
51852;SDS011;37894;53.172;6.598;2022-07-17T05:41:13;6.88;;;2.80;;
51852;SDS011;37894;53.172;6.598;2022-07-17T05:43:39;7.10;;;2.80;;
51852;SDS011;37894;53.172;6.598;2022-07-17T05:46:04;6.82;;;2.90;;
51852;SDS011;37894;53.172;6.598;2022-07-17T05:48:30;7.60;;;2.63;;
51852;SDS011;37894;53.172;6.598;2022-07-17T05:50:57;7.13;;;3.03;;
51852;SDS011;37894;53.172;6.598;2022-07-17T05:53:22;5.65;;;2.60;;
51852;SDS011;37894;53.172;6.598;2022-07-17T05:55:48;5.65;;;2.53;;
51852;SDS011;37894;53.172;6.598;2022-07-17T05:58:14;6.72;;;2.80;;
51852;SDS011;37894;53.172;6.598;2022-07-17T06:00:40;13.35;;;2.58;;
51852;SDS011;37894;53.172;6.598;2022-07-17T06:03:06;8.05;;;2.30;;
51852;SDS011;37894;53.172;6.598;2022-07-17T06:05:32;5.32;;;2.00;;
51852;SDS011;37894;53.172;6.598;2022-07-17T06:07:57;6.47;;;2.15;;
51852;SDS011;37894;53.172;6.598;2022-07-17T06:10:24;10.90;;;2.55;;
51852;SDS011;37894;53.172;6.598;2022-07-17T06:12:51;4.90;;;1.98;;
51852;SDS011;37894;53.172;6.598;2022-07-17T06:15:20;9.02;;;2.08;;
51852;SDS011;37894;53.172;6.598;2022-07-17T06:17:46;8.27;;;2.15;;
51852;SDS011;37894;53.172;6.598;2022-07-17T06:20:12;4.13;;;1.83;;
51852;SDS011;37894;53.172;6.598;2022-07-17T06:22:39;6.05;;;1.77;;
51852;SDS011;37894;53.172;6.598;2022-07-17T06:25:05;11.32;;;2.15;;
51852;SDS011;37894;53.172;6.598;2022-07-17T06:27:31;7.20;;;1.70;;
51852;SDS011;37894;53.172;6.598;2022-07-17T06:29:57;3.03;;;1.50;;
51852;SDS011;37894;53.172;6.598;2022-07-17T06:32:22;7.13;;;1.98;;
51852;SDS011;37894;53.172;6.598;2022-07-17T06:34:48;7.25;;;1.80;;
51852;SDS011;37894;53.172;6.598;2022-07-17T06:37:14;6.82;;;1.67;;
51852;SDS011;37894;53.172;6.598;2022-07-17T06:39:39;5.88;;;1.55;;
51852;SDS011;37894;53.172;6.598;2022-07-17T06:42:05;4.60;;;1.58;;
51852;SDS011;37894;53.172;6.598;2022-07-17T06:44:31;5.47;;;1.45;;
51852;SDS011;37894;53.172;6.598;2022-07-17T06:46:57;5.70;;;1.60;;
51852;SDS011;37894;53.172;6.598;2022-07-17T06:49:23;4.55;;;1.60;;
51852;SDS011;37894;53.172;6.598;2022-07-17T06:51:48;4.40;;;1.60;;
51852;SDS011;37894;53.172;6.598;2022-07-17T06:54:17;4.93;;;1.40;;
51852;SDS011;37894;53.172;6.598;2022-07-17T06:56:43;7.13;;;1.65;;
51852;SDS011;37894;53.172;6.598;2022-07-17T06:59:08;6.85;;;1.92;;
51852;SDS011;37894;53.172;6.598;2022-07-17T07:01:34;5.72;;;1.50;;
51852;SDS011;37894;53.172;6.598;2022-07-17T07:04:01;3.70;;;1.40;;
51852;SDS011;37894;53.172;6.598;2022-07-17T07:06:27;5.32;;;1.55;;
51852;SDS011;37894;53.172;6.598;2022-07-17T07:08:53;6.57;;;1.63;;
51852;SDS011;37894;53.172;6.598;2022-07-17T07:11:18;7.60;;;1.92;;
51852;SDS011;37894;53.172;6.598;2022-07-17T07:13:44;5.80;;;1.30;;
51852;SDS011;37894;53.172;6.598;2022-07-17T07:16:09;5.00;;;1.30;;
51852;SDS011;37894;53.172;6.598;2022-07-17T07:18:35;6.20;;;1.45;;
51852;SDS011;37894;53.172;6.598;2022-07-17T07:21:01;6.13;;;1.50;;
51852;SDS011;37894;53.172;6.598;2022-07-17T07:23:28;6.03;;;1.40;;
51852;SDS011;37894;53.172;6.598;2022-07-17T07:25:53;9.45;;;2.88;;
51852;SDS011;37894;53.172;6.598;2022-07-17T07:28:19;6.78;;;1.30;;
51852;SDS011;37894;53.172;6.598;2022-07-17T07:30:45;6.70;;;1.42;;
51852;SDS011;37894;53.172;6.598;2022-07-17T07:33:10;5.28;;;1.70;;
51852;SDS011;37894;53.172;6.598;2022-07-17T07:35:36;6.93;;;1.63;;
51852;SDS011;37894;53.172;6.598;2022-07-17T07:38:02;7.22;;;1.40;;
51852;SDS011;37894;53.172;6.598;2022-07-17T07:40:28;7.28;;;1.17;;
51852;SDS011;37894;53.172;6.598;2022-07-17T07:42:54;3.10;;;1.20;;
51852;SDS011;37894;53.172;6.598;2022-07-17T07:45:20;5.65;;;1.55;;
51852;SDS011;37894;53.172;6.598;2022-07-17T07:47:46;5.28;;;1.38;;
51852;SDS011;37894;53.172;6.598;2022-07-17T07:50:15;3.90;;;1.30;;
51852;SDS011;37894;53.172;6.598;2022-07-17T07:52:41;9.80;;;1.48;;
51852;SDS011;37894;53.172;6.598;2022-07-17T07:55:07;5.03;;;1.60;;
51852;SDS011;37894;53.172;6.598;2022-07-17T07:57:34;6.25;;;1.25;;
51852;SDS011;37894;53.172;6.598;2022-07-17T07:59:59;8.48;;;1.67;;
51852;SDS011;37894;53.172;6.598;2022-07-17T08:02:25;12.88;;;2.38;;
51852;SDS011;37894;53.172;6.598;2022-07-17T08:04:51;6.03;;;1.38;;
51852;SDS011;37894;53.172;6.598;2022-07-17T08:07:16;7.65;;;1.60;;
51852;SDS011;37894;53.172;6.598;2022-07-17T08:09:42;7.50;;;1.40;;
51852;SDS011;37894;53.172;6.598;2022-07-17T08:12:08;6.07;;;1.40;;
51852;SDS011;37894;53.172;6.598;2022-07-17T08:14:33;5.22;;;1.60;;
51852;SDS011;37894;53.172;6.598;2022-07-17T08:16:59;5.80;;;1.33;;
51852;SDS011;37894;53.172;6.598;2022-07-17T08:19:25;5.63;;;1.63;;
51852;SDS011;37894;53.172;6.598;2022-07-17T08:21:50;3.38;;;1.20;;
51852;SDS011;37894;53.172;6.598;2022-07-17T08:24:16;5.80;;;1.40;;
51852;SDS011;37894;53.172;6.598;2022-07-17T08:26:42;4.53;;;1.30;;
51852;SDS011;37894;53.172;6.598;2022-07-17T08:29:09;7.18;;;1.60;;
51852;SDS011;37894;53.172;6.598;2022-07-17T08:31:34;7.60;;;1.50;;
51852;SDS011;37894;53.172;6.598;2022-07-17T08:34:00;5.55;;;1.30;;
51852;SDS011;37894;53.172;6.598;2022-07-17T08:36:26;5.95;;;1.33;;
51852;SDS011;37894;53.172;6.598;2022-07-17T08:38:52;6.28;;;1.45;;
51852;SDS011;37894;53.172;6.598;2022-07-17T08:41:17;4.85;;;1.25;;
51852;SDS011;37894;53.172;6.598;2022-07-17T08:43:46;5.30;;;1.50;;
51852;SDS011;37894;53.172;6.598;2022-07-17T08:46:13;6.57;;;1.85;;
51852;SDS011;37894;53.172;6.598;2022-07-17T08:48:41;6.40;;;1.30;;
51852;SDS011;37894;53.172;6.598;2022-07-17T08:51:09;5.53;;;1.30;;
51852;SDS011;37894;53.172;6.598;2022-07-17T08:53:36;4.05;;;1.30;;
51852;SDS011;37894;53.172;6.598;2022-07-17T08:56:02;5.50;;;1.30;;
51852;SDS011;37894;53.172;6.598;2022-07-17T08:58:28;3.40;;;1.30;;
51852;SDS011;37894;53.172;6.598;2022-07-17T09:00:55;5.47;;;1.80;;
51852;SDS011;37894;53.172;6.598;2022-07-17T09:03:20;9.27;;;1.33;;
51852;SDS011;37894;53.172;6.598;2022-07-17T09:05:48;3.78;;;1.40;;
51852;SDS011;37894;53.172;6.598;2022-07-17T09:08:22;4.65;;;1.27;;
51852;SDS011;37894;53.172;6.598;2022-07-17T09:10:50;2.78;;;0.93;;
51852;SDS011;37894;53.172;6.598;2022-07-17T09:13:27;6.80;;;1.50;;
51852;SDS011;37894;53.172;6.598;2022-07-17T09:15:59;7.15;;;1.25;;
51852;SDS011;37894;53.172;6.598;2022-07-17T09:18:44;3.67;;;1.10;;
51852;SDS011;37894;53.172;6.598;2022-07-17T09:21:18;9.00;;;1.45;;
51852;SDS011;37894;53.172;6.598;2022-07-17T09:23:45;6.47;;;1.58;;
51852;SDS011;37894;53.172;6.598;2022-07-17T09:26:23;3.60;;;1.30;;
51852;SDS011;37894;53.172;6.598;2022-07-17T09:28:49;5.30;;;1.42;;
51852;SDS011;37894;53.172;6.598;2022-07-17T09:31:23;4.28;;;1.10;;
51852;SDS011;37894;53.172;6.598;2022-07-17T09:33:54;5.88;;;1.25;;
51852;SDS011;37894;53.172;6.598;2022-07-17T09:36:20;3.08;;;1.13;;
51852;SDS011;37894;53.172;6.598;2022-07-17T09:38:48;3.40;;;1.10;;
51852;SDS011;37894;53.172;6.598;2022-07-17T09:41:17;2.35;;;1.20;;
51852;SDS011;37894;53.172;6.598;2022-07-17T09:43:46;4.93;;;1.10;;
51852;SDS011;37894;53.172;6.598;2022-07-17T09:46:26;6.30;;;1.52;;
51852;SDS011;37894;53.172;6.598;2022-07-17T09:48:58;5.00;;;1.45;;
51852;SDS011;37894;53.172;6.598;2022-07-17T09:51:33;7.05;;;1.35;;
51852;SDS011;37894;53.172;6.598;2022-07-17T09:54:03;4.63;;;1.42;;
51852;SDS011;37894;53.172;6.598;2022-07-17T09:56:30;6.65;;;1.35;;
51852;SDS011;37894;53.172;6.598;2022-07-17T09:59:05;5.55;;;1.40;;
51852;SDS011;37894;53.172;6.598;2022-07-17T10:01:32;5.25;;;1.40;;
51852;SDS011;37894;53.172;6.598;2022-07-17T10:03:58;3.08;;;1.20;;
51852;SDS011;37894;53.172;6.598;2022-07-17T10:06:24;4.47;;;1.40;;
51852;SDS011;37894;53.172;6.598;2022-07-17T10:08:51;7.40;;;1.13;;
51852;SDS011;37894;53.172;6.598;2022-07-17T10:11:21;6.68;;;1.75;;
51852;SDS011;37894;53.172;6.598;2022-07-17T10:13:50;5.47;;;1.13;;
51852;SDS011;37894;53.172;6.598;2022-07-17T10:16:25;2.35;;;1.20;;
51852;SDS011;37894;53.172;6.598;2022-07-17T10:18:51;3.28;;;1.15;;
51852;SDS011;37894;53.172;6.598;2022-07-17T10:21:20;6.22;;;1.50;;
51852;SDS011;37894;53.172;6.598;2022-07-17T10:23:48;5.45;;;1.55;;
51852;SDS011;37894;53.172;6.598;2022-07-17T10:29:06;5.00;;;1.33;;
51852;SDS011;37894;53.172;6.598;2022-07-17T10:31:33;6.45;;;1.95;;
51852;SDS011;37894;53.172;6.598;2022-07-17T10:34:00;3.30;;;0.98;;
51852;SDS011;37894;53.172;6.598;2022-07-17T10:36:39;6.72;;;1.27;;
51852;SDS011;37894;53.172;6.598;2022-07-17T10:41:39;2.88;;;1.25;;
51852;SDS011;37894;53.172;6.598;2022-07-17T10:44:06;3.08;;;1.02;;
51852;SDS011;37894;53.172;6.598;2022-07-17T10:46:31;3.00;;;1.20;;
51852;SDS011;37894;53.172;6.598;2022-07-17T10:48:57;2.80;;;1.10;;
51852;SDS011;37894;53.172;6.598;2022-07-17T10:51:26;2.30;;;1.15;;
51852;SDS011;37894;53.172;6.598;2022-07-17T10:53:57;3.33;;;1.00;;
51852;SDS011;37894;53.172;6.598;2022-07-17T10:56:24;3.63;;;1.10;;
51852;SDS011;37894;53.172;6.598;2022-07-17T10:58:51;4.43;;;1.27;;
51852;SDS011;37894;53.172;6.598;2022-07-17T11:01:18;3.63;;;1.15;;
51852;SDS011;37894;53.172;6.598;2022-07-17T11:03:46;3.35;;;1.40;;
51852;SDS011;37894;53.172;6.598;2022-07-17T11:06:23;6.68;;;1.15;;
51852;SDS011;37894;53.172;6.598;2022-07-17T11:11:36;3.72;;;1.10;;
51852;SDS011;37894;53.172;6.598;2022-07-17T11:14:18;3.20;;;1.20;;
51852;SDS011;37894;53.172;6.598;2022-07-17T11:16:52;5.97;;;1.60;;
51852;SDS011;37894;53.172;6.598;2022-07-17T11:19:20;3.72;;;1.10;;
51852;SDS011;37894;53.172;6.598;2022-07-17T11:21:50;3.20;;;1.27;;
51852;SDS011;37894;53.172;6.598;2022-07-17T11:24:16;3.10;;;1.30;;
51852;SDS011;37894;53.172;6.598;2022-07-17T11:26:42;3.95;;;1.42;;
51852;SDS011;37894;53.172;6.598;2022-07-17T11:29:12;3.78;;;1.05;;
51852;SDS011;37894;53.172;6.598;2022-07-17T11:38:50;4.68;;;1.45;;
51852;SDS011;37894;53.172;6.598;2022-07-17T11:41:16;3.67;;;1.30;;
51852;SDS011;37894;53.172;6.598;2022-07-17T11:43:43;3.40;;;1.60;;
51852;SDS011;37894;53.172;6.598;2022-07-17T11:46:09;2.90;;;1.10;;
51852;SDS011;37894;53.172;6.598;2022-07-17T11:48:35;3.17;;;1.10;;
51852;SDS011;37894;53.172;6.598;2022-07-17T11:51:01;2.67;;;1.00;;
51852;SDS011;37894;53.172;6.598;2022-07-17T11:53:30;4.05;;;1.30;;
51852;SDS011;37894;53.172;6.598;2022-07-17T11:55:58;4.60;;;1.13;;
51852;SDS011;37894;53.172;6.598;2022-07-17T11:58:24;2.67;;;1.10;;
51852;SDS011;37894;53.172;6.598;2022-07-17T12:00:59;3.13;;;1.42;;
51852;SDS011;37894;53.172;6.598;2022-07-17T12:03:29;4.45;;;1.40;;
51852;SDS011;37894;53.172;6.598;2022-07-17T12:05:54;2.70;;;1.40;;
51852;SDS011;37894;53.172;6.598;2022-07-17T12:08:20;2.13;;;1.20;;
51852;SDS011;37894;53.172;6.598;2022-07-17T12:10:46;4.00;;;1.40;;
51852;SDS011;37894;53.172;6.598;2022-07-17T12:13:14;3.85;;;1.90;;
51852;SDS011;37894;53.172;6.598;2022-07-17T12:15:41;3.00;;;1.25;;
51852;SDS011;37894;53.172;6.598;2022-07-17T12:18:20;4.10;;;1.50;;
51852;SDS011;37894;53.172;6.598;2022-07-17T12:20:47;4.15;;;1.60;;
51852;SDS011;37894;53.172;6.598;2022-07-17T12:23:31;3.80;;;1.52;;
51852;SDS011;37894;53.172;6.598;2022-07-17T12:26:04;2.95;;;1.40;;
51852;SDS011;37894;53.172;6.598;2022-07-17T12:28:34;3.97;;;1.60;;
51852;SDS011;37894;53.172;6.598;2022-07-17T12:31:00;3.95;;;1.80;;
51852;SDS011;37894;53.172;6.598;2022-07-17T12:33:27;3.35;;;1.60;;
51852;SDS011;37894;53.172;6.598;2022-07-17T12:35:53;3.15;;;1.45;;
51852;SDS011;37894;53.172;6.598;2022-07-17T12:38:18;4.53;;;1.45;;
51852;SDS011;37894;53.172;6.598;2022-07-17T12:40:44;6.68;;;1.75;;
51852;SDS011;37894;53.172;6.598;2022-07-17T12:43:10;4.93;;;1.80;;
51852;SDS011;37894;53.172;6.598;2022-07-17T12:45:36;3.30;;;1.52;;
51852;SDS011;37894;53.172;6.598;2022-07-17T12:48:02;4.20;;;1.85;;
51852;SDS011;37894;53.172;6.598;2022-07-17T12:50:28;8.55;;;1.63;;
51852;SDS011;37894;53.172;6.598;2022-07-17T12:52:54;5.10;;;1.70;;
51852;SDS011;37894;53.172;6.598;2022-07-17T12:55:19;3.92;;;1.77;;
51852;SDS011;37894;53.172;6.598;2022-07-17T12:57:45;4.70;;;1.92;;
51852;SDS011;37894;53.172;6.598;2022-07-17T13:00:11;3.40;;;1.73;;
51852;SDS011;37894;53.172;6.598;2022-07-17T13:02:38;3.35;;;1.50;;
51852;SDS011;37894;53.172;6.598;2022-07-17T13:05:03;4.43;;;1.50;;
51852;SDS011;37894;53.172;6.598;2022-07-17T13:07:30;3.25;;;1.80;;
51852;SDS011;37894;53.172;6.598;2022-07-17T13:09:55;4.97;;;2.33;;
51852;SDS011;37894;53.172;6.598;2022-07-17T13:12:21;4.63;;;2.30;;
51852;SDS011;37894;53.172;6.598;2022-07-17T13:14:47;4.43;;;2.28;;
51852;SDS011;37894;53.172;6.598;2022-07-17T13:17:13;4.80;;;2.20;;
51852;SDS011;37894;53.172;6.598;2022-07-17T13:19:39;7.32;;;2.00;;
51852;SDS011;37894;53.172;6.598;2022-07-17T13:22:04;4.15;;;1.95;;
51852;SDS011;37894;53.172;6.598;2022-07-17T13:24:30;6.03;;;1.95;;
51852;SDS011;37894;53.172;6.598;2022-07-17T13:26:56;6.15;;;2.50;;
51852;SDS011;37894;53.172;6.598;2022-07-17T13:29:24;4.30;;;2.15;;
51852;SDS011;37894;53.172;6.598;2022-07-17T13:31:51;3.95;;;1.88;;
51852;SDS011;37894;53.172;6.598;2022-07-17T13:34:20;4.35;;;1.88;;
51852;SDS011;37894;53.172;6.598;2022-07-17T13:36:46;6.25;;;2.20;;
51852;SDS011;37894;53.172;6.598;2022-07-17T13:39:12;3.28;;;1.90;;
51852;SDS011;37894;53.172;6.598;2022-07-17T13:41:38;3.00;;;1.50;;
51852;SDS011;37894;53.172;6.598;2022-07-17T13:44:04;4.07;;;1.90;;
51852;SDS011;37894;53.172;6.598;2022-07-17T13:46:30;4.75;;;1.80;;
51852;SDS011;37894;53.172;6.598;2022-07-17T13:48:56;4.97;;;1.88;;
51852;SDS011;37894;53.172;6.598;2022-07-17T13:51:22;3.95;;;2.20;;
51852;SDS011;37894;53.172;6.598;2022-07-17T13:53:48;4.10;;;2.03;;
51852;SDS011;37894;53.172;6.598;2022-07-17T13:56:13;3.13;;;1.65;;
51852;SDS011;37894;53.172;6.598;2022-07-17T13:58:39;4.40;;;1.80;;
51852;SDS011;37894;53.172;6.598;2022-07-17T14:01:05;4.47;;;1.77;;
51852;SDS011;37894;53.172;6.598;2022-07-17T14:03:31;4.50;;;1.80;;
51852;SDS011;37894;53.172;6.598;2022-07-17T14:05:57;4.45;;;1.67;;
51852;SDS011;37894;53.172;6.598;2022-07-17T14:08:25;6.38;;;1.92;;
51852;SDS011;37894;53.172;6.598;2022-07-17T14:10:51;4.13;;;1.98;;
51852;SDS011;37894;53.172;6.598;2022-07-17T14:13:17;3.65;;;1.98;;
51852;SDS011;37894;53.172;6.598;2022-07-17T14:15:43;4.10;;;2.13;;
51852;SDS011;37894;53.172;6.598;2022-07-17T14:18:08;4.57;;;2.00;;
51852;SDS011;37894;53.172;6.598;2022-07-17T14:20:34;3.30;;;2.13;;
51852;SDS011;37894;53.172;6.598;2022-07-17T14:23:00;4.25;;;2.58;;
51852;SDS011;37894;53.172;6.598;2022-07-17T14:25:26;4.10;;;2.03;;
51852;SDS011;37894;53.172;6.598;2022-07-17T14:27:51;4.97;;;2.38;;
51852;SDS011;37894;53.172;6.598;2022-07-17T14:30:17;3.92;;;2.17;;
51852;SDS011;37894;53.172;6.598;2022-07-17T14:32:43;5.43;;;2.42;;
51852;SDS011;37894;53.172;6.598;2022-07-17T14:35:08;3.55;;;2.15;;
51852;SDS011;37894;53.172;6.598;2022-07-17T14:37:34;4.80;;;2.42;;
51852;SDS011;37894;53.172;6.598;2022-07-17T14:40:00;4.70;;;2.13;;
51852;SDS011;37894;53.172;6.598;2022-07-17T14:42:26;4.93;;;2.38;;
51852;SDS011;37894;53.172;6.598;2022-07-17T14:44:52;5.90;;;2.35;;
51852;SDS011;37894;53.172;6.598;2022-07-17T14:47:18;5.07;;;2.13;;
51852;SDS011;37894;53.172;6.598;2022-07-17T14:49:44;4.07;;;2.30;;
51852;SDS011;37894;53.172;6.598;2022-07-17T14:52:09;5.15;;;2.30;;
51852;SDS011;37894;53.172;6.598;2022-07-17T14:54:35;6.20;;;2.58;;
51852;SDS011;37894;53.172;6.598;2022-07-17T14:57:01;4.07;;;2.33;;
51852;SDS011;37894;53.172;6.598;2022-07-17T14:59:26;4.93;;;3.10;;
51852;SDS011;37894;53.172;6.598;2022-07-17T15:01:52;6.05;;;3.45;;